createdAt,value
2018-05-08T00:00:24.569Z,2.10
2018-05-08T00:01:24.564Z,3.40
2018-05-08T00:02:24.555Z,3.50
2018-05-08T00:03:24.577Z,6.70
2018-05-08T00:04:24.558Z,2.70
2018-05-08T00:05:24.567Z,3.50
2018-05-08T00:06:24.577Z,2.50
2018-05-08T00:07:24.555Z,3.70
2018-05-08T00:08:24.566Z,1.90
2018-05-08T00:09:24.556Z,3.00
2018-05-08T00:10:24.567Z,2.30
2018-05-08T00:11:24.556Z,2.30
2018-05-08T00:12:24.765Z,2.10
2018-05-08T00:13:24.582Z,2.20
2018-05-08T00:14:24.556Z,2.60
2018-05-08T00:15:24.567Z,2.40
2018-05-08T00:16:24.567Z,2.10
2018-05-08T00:17:24.555Z,2.30
2018-05-08T00:18:24.560Z,2.20
2018-05-08T00:19:24.761Z,2.60
2018-05-08T00:20:24.556Z,2.30
2018-05-08T00:21:24.573Z,5.10
2018-05-08T00:22:24.558Z,2.10
2018-05-08T00:23:24.563Z,3.70
2018-05-08T00:24:24.557Z,4.10
2018-05-08T00:25:24.555Z,2.30
2018-05-08T00:26:24.561Z,2.50
2018-05-08T00:27:24.557Z,4.20
2018-05-08T00:28:24.566Z,2.30
2018-05-08T00:29:24.573Z,2.50
2018-05-08T00:30:24.557Z,2.20
2018-05-08T00:31:24.567Z,2.80
2018-05-08T00:32:24.760Z,2.80
2018-05-08T00:33:24.555Z,2.60
2018-05-08T00:34:24.555Z,2.60
2018-05-08T00:35:24.553Z,2.50
2018-05-08T00:36:24.556Z,2.50
2018-05-08T00:37:24.554Z,3.50
2018-05-08T00:38:24.772Z,2.80
2018-05-08T00:39:24.554Z,4.60
2018-05-08T00:40:24.755Z,2.40
2018-05-08T00:41:24.568Z,2.40
2018-05-08T00:42:24.757Z,2.60
2018-05-08T00:43:24.551Z,2.30
2018-05-08T00:44:24.565Z,2.70
2018-05-08T00:45:24.764Z,2.60
2018-05-08T00:46:24.557Z,2.80
2018-05-08T00:47:24.762Z,3.40
2018-05-08T00:48:24.551Z,2.50
2018-05-08T00:49:24.760Z,2.70
2018-05-08T00:50:24.560Z,2.80
2018-05-08T00:51:24.557Z,2.80
2018-05-08T00:52:24.748Z,2.70
2018-05-08T00:53:24.555Z,3.10
2018-05-08T00:54:24.548Z,2.90
2018-05-08T00:55:24.560Z,3.30
2018-05-08T00:56:24.544Z,3.20
2018-05-08T00:57:24.541Z,2.80
2018-05-08T00:58:24.541Z,3.70
2018-05-08T00:59:24.552Z,2.90
2018-05-08T01:00:24.540Z,3.40
2018-05-08T01:01:24.538Z,4.20
2018-05-08T01:02:24.552Z,3.20
2018-05-08T01:03:24.537Z,3.40
2018-05-08T01:04:24.537Z,5.10
2018-05-08T01:05:24.546Z,3.10
2018-05-08T01:06:24.761Z,3.40
2018-05-08T01:07:24.533Z,3.50
2018-05-08T01:08:24.535Z,4.10
2018-05-08T01:09:24.541Z,2.90
2018-05-08T01:10:24.556Z,3.00
2018-05-08T01:11:24.540Z,2.90
2018-05-08T01:12:24.558Z,3.00
2018-05-08T01:13:24.525Z,2.80
2018-05-08T01:14:24.539Z,3.20
2018-05-08T01:15:24.728Z,10.60
2018-05-08T01:16:24.725Z,2.80
2018-05-08T01:17:24.521Z,3.20
2018-05-08T01:18:24.533Z,3.20
2018-05-08T01:19:24.533Z,3.40
2018-05-08T01:20:24.538Z,3.30
2018-05-08T01:21:24.719Z,3.10
2018-05-08T01:22:24.519Z,3.60
2018-05-08T01:23:24.525Z,3.30
2018-05-08T01:24:24.523Z,3.40
2018-05-08T01:25:24.513Z,3.40
2018-05-08T01:26:24.521Z,3.50
2018-05-08T01:27:24.711Z,3.70
2018-05-08T01:28:24.518Z,3.40
2018-05-08T01:29:24.506Z,3.50
2018-05-08T01:30:24.508Z,3.40
2018-05-08T01:31:24.515Z,4.30
2018-05-08T01:32:24.502Z,4.00
2018-05-08T01:33:24.499Z,3.80
2018-05-08T01:34:24.505Z,3.80
2018-05-08T01:35:24.507Z,4.00
2018-05-08T01:36:24.508Z,3.60
2018-05-08T01:37:24.496Z,4.10
2018-05-08T01:38:24.493Z,3.60
2018-05-08T01:39:24.493Z,3.90
2018-05-08T01:40:24.691Z,3.60
2018-05-08T01:41:24.703Z,3.70
2018-05-08T01:42:24.493Z,3.50
2018-05-08T01:43:24.492Z,3.60
2018-05-08T01:44:24.483Z,3.80
2018-05-08T01:45:24.694Z,3.40
2018-05-08T01:46:24.477Z,3.60
2018-05-08T01:47:24.683Z,3.90
2018-05-08T01:48:24.476Z,3.50
2018-05-08T01:49:24.484Z,3.90
2018-05-08T01:50:24.472Z,3.60
2018-05-08T01:51:24.468Z,4.10
2018-05-08T01:52:24.470Z,3.60
2018-05-08T01:53:24.678Z,4.00
2018-05-08T01:54:24.471Z,3.80
2018-05-08T01:55:24.667Z,3.60
2018-05-08T01:56:24.677Z,3.90
2018-05-08T01:57:24.461Z,3.40
2018-05-08T01:58:24.468Z,3.40
2018-05-08T01:59:24.657Z,4.20
2018-05-08T02:00:24.464Z,4.20
2018-05-08T02:01:24.453Z,4.10
2018-05-08T02:02:24.653Z,4.30
2018-05-08T02:03:24.459Z,3.60
2018-05-08T02:04:24.447Z,3.30
2018-05-08T02:05:24.672Z,3.80
2018-05-08T02:06:24.445Z,4.40
2018-05-08T02:07:24.442Z,3.40
2018-05-08T02:08:24.451Z,3.70
2018-05-08T02:09:24.444Z,3.80
2018-05-08T02:10:24.448Z,3.30
2018-05-08T02:11:24.431Z,3.60
2018-05-08T02:12:24.431Z,3.50
2018-05-08T02:13:24.445Z,3.60
2018-05-08T02:14:24.443Z,3.50
2018-05-08T02:15:24.435Z,3.90
2018-05-08T02:16:24.425Z,4.00
2018-05-08T02:17:24.424Z,3.90
2018-05-08T02:18:24.460Z,3.80
2018-05-08T02:19:24.430Z,4.20
2018-05-08T02:20:24.555Z,3.80
2018-05-08T02:21:24.413Z,4.40
2018-05-08T02:22:24.425Z,4.20
2018-05-08T02:23:24.420Z,4.00
2018-05-08T02:24:24.408Z,3.80
2018-05-08T02:25:24.403Z,4.00
2018-05-08T02:26:24.402Z,3.90
2018-05-08T02:27:24.400Z,3.60
2018-05-08T02:28:24.398Z,3.70
2018-05-08T02:29:24.406Z,3.50
2018-05-08T02:30:24.395Z,3.30
2018-05-08T02:31:24.393Z,3.40
2018-05-08T02:32:24.392Z,3.40
2018-05-08T02:33:24.388Z,3.90
2018-05-08T02:34:24.385Z,4.00
2018-05-08T02:35:24.383Z,4.00
2018-05-08T02:36:24.384Z,3.80
2018-05-08T02:37:24.388Z,3.60
2018-05-08T02:38:24.381Z,4.00
2018-05-08T02:39:24.375Z,3.90
2018-05-08T02:40:24.575Z,3.80
2018-05-08T02:41:24.381Z,3.90
2018-05-08T02:42:24.583Z,3.60
2018-05-08T02:43:24.364Z,4.10
2018-05-08T02:44:24.579Z,3.90
2018-05-08T02:45:24.361Z,4.20
2018-05-08T02:46:24.369Z,4.40
2018-05-08T02:47:24.357Z,4.20
2018-05-08T02:48:24.357Z,3.60
2018-05-08T02:49:24.354Z,3.40
2018-05-08T02:50:24.349Z,3.80
2018-05-08T02:51:24.347Z,3.60
2018-05-08T02:52:24.345Z,4.20
2018-05-08T02:53:24.353Z,3.50
2018-05-08T02:54:24.355Z,3.60
2018-05-08T02:55:24.657Z,3.70
2018-05-08T02:56:24.333Z,3.50
2018-05-08T02:57:24.343Z,3.90
2018-05-08T02:58:24.329Z,3.90
2018-05-08T02:59:24.337Z,3.60
2018-05-08T03:00:24.335Z,3.80
2018-05-08T03:01:24.335Z,4.30
2018-05-08T03:02:24.319Z,4.10
2018-05-08T03:03:24.520Z,4.30
2018-05-08T03:04:24.325Z,3.90
2018-05-08T03:05:24.322Z,3.80
2018-05-08T03:06:24.527Z,4.30
2018-05-08T03:07:24.312Z,4.30
2018-05-08T03:08:24.508Z,4.30
2018-05-08T03:09:24.523Z,4.40
2018-05-08T03:10:24.311Z,4.10
2018-05-08T03:11:24.311Z,4.90
2018-05-08T03:12:24.496Z,4.10
2018-05-08T03:13:24.511Z,4.30
2018-05-08T03:14:24.297Z,3.80
2018-05-08T03:15:24.289Z,4.50
2018-05-08T03:16:24.289Z,4.00
2018-05-08T03:17:24.282Z,3.90
2018-05-08T03:18:24.292Z,3.90
2018-05-08T03:19:24.281Z,4.80
2018-05-08T03:20:24.275Z,4.20
2018-05-08T03:21:24.472Z,4.40
2018-05-08T03:22:24.556Z,3.90
2018-05-08T03:23:24.275Z,3.70
2018-05-08T03:24:24.490Z,3.40
2018-05-08T03:25:24.273Z,3.10
2018-05-08T03:26:24.484Z,3.60
2018-05-08T03:27:24.269Z,3.00
2018-05-08T03:28:24.253Z,3.50
2018-05-08T03:29:24.456Z,2.90
2018-05-08T03:30:24.249Z,3.00
2018-05-08T03:31:24.259Z,3.40
2018-05-08T03:32:24.447Z,3.50
2018-05-08T03:33:24.445Z,3.90
2018-05-08T03:34:24.248Z,3.70
2018-05-08T03:35:24.236Z,3.90
2018-05-08T03:36:24.233Z,3.80
2018-05-08T03:37:24.239Z,4.10
2018-05-08T03:38:24.246Z,4.20
2018-05-08T03:39:24.224Z,3.80
2018-05-08T03:40:24.221Z,4.10
2018-05-08T03:41:24.422Z,4.10
2018-05-08T03:42:24.422Z,3.80
2018-05-08T03:43:24.237Z,4.80
2018-05-08T03:44:24.212Z,4.40
2018-05-08T03:45:24.227Z,4.00
2018-05-08T03:46:24.210Z,4.40
2018-05-08T03:47:24.204Z,4.10
2018-05-08T03:48:24.204Z,4.70
2018-05-08T03:49:24.206Z,4.50
2018-05-08T03:50:24.195Z,3.80
2018-05-08T03:51:24.201Z,4.30
2018-05-08T03:52:24.405Z,4.60
2018-05-08T03:53:24.187Z,4.20
2018-05-08T03:54:24.186Z,4.70
2018-05-08T03:55:24.193Z,4.50
2018-05-08T03:56:24.187Z,4.90
2018-05-08T03:57:24.222Z,4.20
2018-05-08T03:58:24.176Z,5.60
2018-05-08T03:59:24.183Z,5.60
2018-05-08T04:00:24.169Z,4.70
2018-05-08T04:01:24.165Z,4.70
2018-05-08T04:02:24.161Z,5.00
2018-05-08T04:03:24.171Z,7.90
2018-05-08T04:04:24.167Z,4.80
2018-05-08T04:05:24.161Z,5.00
2018-05-08T04:06:24.352Z,4.80
2018-05-08T04:07:24.146Z,3.30
2018-05-08T04:08:24.429Z,3.30
2018-05-08T04:09:24.359Z,3.80
2018-05-08T04:10:24.136Z,4.00
2018-05-08T04:11:24.133Z,3.30
2018-05-08T04:12:24.132Z,4.30
2018-05-08T04:13:24.345Z,5.30
2018-05-08T04:14:24.141Z,3.80
2018-05-08T04:15:24.203Z,4.00
2018-05-08T04:16:24.117Z,3.60
2018-05-08T04:17:24.129Z,3.40
2018-05-08T04:18:24.112Z,3.00
2018-05-08T04:19:24.315Z,3.70
2018-05-08T04:20:24.120Z,4.50
2018-05-08T04:21:24.323Z,4.00
2018-05-08T04:22:24.112Z,3.90
2018-05-08T04:23:24.097Z,4.60
2018-05-08T04:24:24.098Z,5.50
2018-05-08T04:25:24.106Z,5.90
2018-05-08T04:26:24.095Z,5.90
2018-05-08T04:27:24.098Z,4.00
2018-05-08T04:28:24.087Z,4.30
2018-05-08T04:29:24.096Z,4.40
2018-05-08T04:30:24.105Z,4.70
2018-05-08T04:31:24.280Z,5.50
2018-05-08T04:32:24.276Z,5.30
2018-05-08T04:33:24.274Z,4.80
2018-05-08T04:34:24.076Z,5.40
2018-05-08T04:35:24.267Z,5.00
2018-05-08T04:36:24.070Z,5.20
2018-05-08T04:37:24.068Z,5.20
2018-05-08T04:38:24.274Z,5.10
2018-05-08T04:39:24.073Z,7.20
2018-05-08T04:40:24.069Z,4.90
2018-05-08T04:41:24.049Z,5.00
2018-05-08T04:42:24.055Z,4.50
2018-05-08T04:43:24.053Z,4.00
2018-05-08T04:44:24.055Z,4.70
2018-05-08T04:45:24.046Z,4.90
2018-05-08T04:46:24.033Z,4.50
2018-05-08T04:47:24.084Z,4.20
2018-05-08T04:48:24.026Z,4.10
2018-05-08T04:49:24.240Z,4.80
2018-05-08T04:50:24.019Z,4.80
2018-05-08T04:51:24.031Z,5.00
2018-05-08T04:52:24.013Z,5.10
2018-05-08T04:53:24.012Z,7.80
2018-05-08T04:54:24.030Z,7.30
2018-05-08T04:55:24.209Z,5.80
2018-05-08T04:56:24.002Z,5.30
2018-05-08T04:57:24.010Z,5.20
2018-05-08T04:58:24.007Z,5.00
2018-05-08T04:59:24.199Z,5.20
2018-05-08T05:00:24.002Z,5.20
2018-05-08T05:01:23.990Z,5.50
2018-05-08T05:02:24.000Z,4.90
2018-05-08T05:03:23.992Z,6.00
2018-05-08T05:04:24.186Z,5.30
2018-05-08T05:05:24.187Z,7.10
2018-05-08T05:06:23.977Z,6.90
2018-05-08T05:07:23.982Z,5.80
2018-05-08T05:08:23.972Z,5.90
2018-05-08T05:09:23.964Z,5.50
2018-05-08T05:10:23.965Z,5.00
2018-05-08T05:11:23.965Z,8.50
2018-05-08T05:12:23.987Z,6.20
2018-05-08T05:13:23.965Z,5.30
2018-05-08T05:14:23.951Z,5.40
2018-05-08T05:15:23.950Z,5.90
2018-05-08T05:16:24.152Z,5.50
2018-05-08T05:17:23.954Z,5.90
2018-05-08T05:18:23.954Z,5.70
2018-05-08T05:19:23.961Z,6.00
2018-05-08T05:20:24.153Z,5.20
2018-05-08T05:21:24.163Z,5.60
2018-05-08T05:22:24.135Z,5.70
2018-05-08T05:23:23.929Z,6.20
2018-05-08T05:24:24.010Z,5.90
2018-05-08T05:25:23.923Z,6.00
2018-05-08T05:26:23.933Z,5.90
2018-05-08T05:27:23.917Z,6.20
2018-05-08T05:28:23.916Z,6.60
2018-05-08T05:29:23.929Z,6.10
2018-05-08T05:30:23.923Z,6.20
2018-05-08T05:31:23.912Z,6.40
2018-05-08T05:32:24.109Z,6.20
2018-05-08T05:33:23.904Z,7.00
2018-05-08T05:34:23.928Z,7.10
2018-05-08T05:35:23.900Z,7.30
2018-05-08T05:36:23.908Z,6.90
2018-05-08T05:37:23.908Z,6.60
2018-05-08T05:38:23.894Z,7.10
2018-05-08T05:39:23.890Z,7.20
2018-05-08T05:40:24.093Z,7.20
2018-05-08T05:41:24.090Z,8.50
2018-05-08T05:42:23.918Z,7.10
2018-05-08T05:43:23.891Z,7.00
2018-05-08T05:44:23.892Z,7.10
2018-05-08T05:45:23.889Z,7.00
2018-05-08T05:46:24.080Z,6.60
2018-05-08T05:47:24.079Z,6.50
2018-05-08T05:48:24.095Z,9.20
2018-05-08T05:49:23.872Z,7.90
2018-05-08T05:50:23.880Z,10.20
2018-05-08T05:51:23.887Z,9.90
2018-05-08T05:52:23.894Z,8.90
2018-05-08T05:53:23.965Z,10.40
2018-05-08T05:54:24.064Z,8.70
2018-05-08T05:55:24.072Z,7.10
2018-05-08T05:56:23.861Z,12.60
2018-05-08T05:57:24.078Z,9.50
2018-05-08T05:58:24.069Z,9.20
2018-05-08T05:59:23.860Z,6.80
2018-05-08T06:00:23.848Z,7.30
2018-05-08T06:01:23.851Z,7.30
2018-05-08T06:02:23.856Z,8.50
2018-05-08T06:03:23.847Z,7.20
2018-05-08T06:04:24.053Z,7.20
2018-05-08T06:05:23.843Z,8.60
2018-05-08T06:06:24.077Z,6.60
2018-05-08T06:07:23.850Z,7.00
2018-05-08T06:08:23.835Z,6.30
2018-05-08T06:09:23.831Z,8.70
2018-05-08T06:10:23.838Z,6.80
2018-05-08T06:11:24.034Z,6.20
2018-05-08T06:12:23.827Z,6.10
2018-05-08T06:13:24.035Z,6.30
2018-05-08T06:14:23.824Z,6.10
2018-05-08T06:15:23.822Z,6.00
2018-05-08T06:16:23.824Z,6.30
2018-05-08T06:17:23.833Z,7.00
2018-05-08T06:18:23.818Z,6.10
2018-05-08T06:19:24.026Z,6.30
2018-05-08T06:20:23.896Z,6.20
2018-05-08T06:21:24.017Z,6.60
2018-05-08T06:22:23.828Z,5.70
2018-05-08T06:23:24.015Z,5.80
2018-05-08T06:24:23.810Z,6.60
2018-05-08T06:25:23.810Z,5.90
2018-05-08T06:26:23.807Z,5.70
2018-05-08T06:27:23.822Z,5.70
2018-05-08T06:28:24.010Z,5.10
2018-05-08T06:29:23.809Z,5.80
2018-05-08T06:30:23.804Z,5.60
2018-05-08T06:31:24.024Z,5.10
2018-05-08T06:32:23.815Z,7.10
2018-05-08T06:33:24.003Z,6.90
2018-05-08T06:34:23.809Z,6.30
2018-05-08T06:35:23.797Z,5.50
2018-05-08T06:36:23.819Z,5.20
2018-05-08T06:37:23.807Z,5.30
2018-05-08T06:38:23.797Z,5.00
2018-05-08T06:39:23.803Z,7.20
2018-05-08T06:40:23.793Z,5.20
2018-05-08T06:41:23.806Z,7.20
2018-05-08T06:42:23.996Z,6.00
2018-05-08T06:43:23.791Z,5.00
2018-05-08T06:44:24.022Z,5.20
2018-05-08T06:45:23.809Z,5.20
2018-05-08T06:46:23.800Z,5.60
2018-05-08T06:47:23.998Z,4.50
2018-05-08T06:48:24.006Z,8.50
2018-05-08T06:49:23.798Z,4.30
2018-05-08T06:50:23.788Z,5.60
2018-05-08T06:51:23.786Z,7.40
2018-05-08T06:52:23.795Z,4.20
2018-05-08T06:53:23.820Z,4.90
2018-05-08T06:54:23.804Z,4.10
2018-05-08T06:55:23.795Z,4.60
2018-05-08T06:56:23.805Z,4.40
2018-05-08T06:57:23.792Z,4.40
2018-05-08T06:58:23.781Z,4.00
2018-05-08T06:59:24.000Z,5.10
2018-05-08T07:00:23.783Z,4.70
2018-05-08T07:01:23.793Z,4.00
2018-05-08T07:02:23.789Z,7.60
2018-05-08T07:03:23.779Z,4.10
2018-05-08T07:04:23.776Z,4.20
2018-05-08T07:05:23.776Z,4.20
2018-05-08T07:06:23.786Z,5.90
2018-05-08T07:07:23.981Z,5.10
2018-05-08T07:08:23.800Z,4.10
2018-05-08T07:09:23.977Z,3.90
2018-05-08T07:10:23.784Z,7.20
2018-05-08T07:11:23.774Z,3.90
2018-05-08T07:12:23.976Z,3.30
2018-05-08T07:13:23.777Z,2.40
2018-05-08T07:14:23.785Z,2.30
2018-05-08T07:15:23.781Z,4.20
2018-05-08T07:16:23.773Z,3.50
2018-05-08T07:17:23.989Z,4.10
2018-05-08T07:18:23.773Z,2.50
2018-05-08T07:19:23.785Z,2.50
2018-05-08T07:20:23.774Z,3.30
2018-05-08T07:21:23.775Z,3.70
2018-05-08T07:22:23.777Z,2.20
2018-05-08T07:23:23.778Z,2.50
2018-05-08T07:24:23.995Z,2.90
2018-05-08T07:25:23.781Z,1.80
2018-05-08T07:26:23.783Z,2.00
2018-05-08T07:27:23.806Z,3.50
2018-05-08T07:28:24.004Z,1.60
2018-05-08T07:29:23.815Z,2.50
2018-05-08T07:30:23.804Z,2.50
2018-05-08T07:31:23.790Z,2.40
2018-05-08T07:32:23.805Z,2.00
2018-05-08T07:33:23.797Z,2.80
2018-05-08T07:34:23.798Z,2.40
2018-05-08T07:35:23.999Z,2.10
2018-05-08T07:36:23.812Z,3.60
2018-05-08T07:37:23.815Z,2.70
2018-05-08T07:38:23.854Z,2.10
2018-05-08T07:39:23.805Z,2.30
2018-05-08T07:40:23.820Z,2.30
2018-05-08T07:41:23.809Z,2.30
2018-05-08T07:42:23.810Z,2.80
2018-05-08T07:43:23.821Z,2.40
2018-05-08T07:44:24.035Z,2.10
2018-05-08T07:45:23.845Z,3.00
2018-05-08T07:46:23.831Z,3.90
2018-05-08T07:47:24.032Z,1.80
2018-05-08T07:48:23.835Z,2.30
2018-05-08T07:49:23.826Z,2.60
2018-05-08T07:50:23.826Z,1.70
2018-05-08T07:51:23.850Z,3.20
2018-05-08T07:52:23.842Z,2.20
2018-05-08T07:53:23.830Z,3.20
2018-05-08T07:54:23.840Z,4.90
2018-05-08T07:55:23.831Z,4.40
2018-05-08T07:56:23.842Z,3.30
2018-05-08T07:57:23.834Z,3.90
2018-05-08T07:58:24.042Z,1.70
2018-05-08T07:59:23.860Z,1.90
2018-05-08T08:00:23.857Z,4.00
2018-05-08T08:01:23.841Z,1.60
2018-05-08T08:02:24.062Z,3.00
2018-05-08T08:03:23.881Z,2.10
2018-05-08T08:04:23.850Z,2.90
2018-05-08T08:05:23.848Z,2.20
2018-05-08T08:06:23.848Z,6.10
2018-05-08T08:07:23.859Z,3.20
2018-05-08T08:08:24.070Z,2.60
2018-05-08T08:09:23.879Z,2.60
2018-05-08T08:10:24.068Z,4.00
2018-05-08T08:11:23.858Z,4.30
2018-05-08T08:12:23.955Z,2.30
2018-05-08T08:13:23.862Z,3.40
2018-05-08T08:14:23.861Z,2.50
2018-05-08T08:15:23.867Z,4.30
2018-05-08T08:16:23.866Z,1.90
2018-05-08T08:17:23.879Z,2.00
2018-05-08T08:18:23.880Z,2.40
2018-05-08T08:19:23.880Z,2.10
2018-05-08T08:20:24.076Z,2.30
2018-05-08T08:21:23.888Z,2.60
2018-05-08T08:22:23.876Z,2.50
2018-05-08T08:23:23.888Z,3.00
2018-05-08T08:24:23.881Z,2.20
2018-05-08T08:25:23.881Z,3.00
2018-05-08T08:26:23.885Z,2.80
2018-05-08T08:27:24.102Z,4.00
2018-05-08T08:28:23.890Z,2.20
2018-05-08T08:29:23.894Z,2.70
2018-05-08T08:30:24.100Z,3.80
2018-05-08T08:31:23.909Z,4.00
2018-05-08T08:32:23.924Z,1.80
2018-05-08T08:33:23.922Z,3.50
2018-05-08T08:34:23.911Z,3.60
2018-05-08T08:35:24.114Z,1.80
2018-05-08T08:36:23.911Z,3.80
2018-05-08T08:37:23.922Z,2.00
2018-05-08T08:38:23.915Z,3.80
2018-05-08T08:39:23.917Z,1.90
2018-05-08T08:40:23.934Z,1.70
2018-05-08T08:41:24.125Z,3.90
2018-05-08T08:42:24.127Z,2.40
2018-05-08T08:43:23.927Z,2.30
2018-05-08T08:44:24.143Z,2.10
2018-05-08T08:45:23.937Z,2.10
2018-05-08T08:46:24.170Z,1.90
2018-05-08T08:47:24.137Z,2.30
2018-05-08T08:48:23.948Z,1.90
2018-05-08T08:49:23.942Z,2.20
2018-05-08T08:50:24.145Z,2.00
2018-05-08T08:51:23.945Z,2.50
2018-05-08T08:52:24.224Z,2.10
2018-05-08T08:53:23.955Z,3.00
2018-05-08T08:54:24.159Z,1.90
2018-05-08T08:55:23.956Z,3.00
2018-05-08T08:56:24.159Z,3.50
2018-05-08T08:57:23.960Z,2.00
2018-05-08T08:58:23.992Z,2.10
2018-05-08T08:59:23.967Z,2.30
2018-05-08T09:00:23.971Z,3.80
2018-05-08T09:01:23.975Z,2.40
2018-05-08T09:02:23.969Z,2.90
2018-05-08T09:03:23.987Z,3.90
2018-05-08T09:04:23.979Z,2.80
2018-05-08T09:05:24.196Z,1.70
2018-05-08T09:06:23.983Z,5.00
2018-05-08T09:07:23.994Z,4.60
2018-05-08T09:08:24.006Z,2.70
2018-05-08T09:09:23.990Z,4.50
2018-05-08T09:10:24.222Z,2.00
2018-05-08T09:11:24.008Z,4.60
2018-05-08T09:12:24.000Z,2.80
2018-05-08T09:13:24.020Z,1.70
2018-05-08T09:14:24.213Z,1.80
2018-05-08T09:15:24.215Z,3.00
2018-05-08T09:16:24.020Z,2.90
2018-05-08T09:17:24.236Z,3.50
2018-05-08T09:18:24.026Z,2.00
2018-05-08T09:19:24.012Z,3.20
2018-05-08T09:20:24.016Z,1.90
2018-05-08T09:21:24.020Z,3.20
2018-05-08T09:22:24.020Z,3.30
2018-05-08T09:23:24.023Z,1.90
2018-05-08T09:24:24.025Z,3.30
2018-05-08T09:25:24.230Z,2.90
2018-05-08T09:26:24.235Z,2.40
2018-05-08T09:27:24.090Z,3.70
2018-05-08T09:28:24.045Z,2.00
2018-05-08T09:29:24.038Z,2.30
2018-05-08T09:30:24.041Z,2.70
2018-05-08T09:31:24.253Z,2.20
2018-05-08T09:32:24.043Z,2.00
2018-05-08T09:33:24.051Z,3.40
2018-05-08T09:34:24.259Z,2.80
2018-05-08T09:35:24.050Z,2.30
2018-05-08T09:36:24.062Z,2.50
2018-05-08T09:37:24.258Z,2.10
2018-05-08T09:38:24.060Z,3.60
2018-05-08T09:39:24.262Z,3.20
2018-05-08T09:40:24.072Z,2.60
2018-05-08T09:41:24.074Z,3.80
2018-05-08T09:42:24.075Z,4.70
2018-05-08T09:43:24.068Z,3.80
2018-05-08T09:44:24.073Z,4.10
2018-05-08T09:45:24.305Z,2.60
2018-05-08T09:46:24.076Z,1.90
2018-05-08T09:47:24.292Z,1.70
2018-05-08T09:48:24.082Z,2.10
2018-05-08T09:49:24.085Z,3.10
2018-05-08T09:50:24.108Z,1.80
2018-05-08T09:51:24.096Z,4.20
2018-05-08T09:52:24.295Z,2.70
2018-05-08T09:53:24.113Z,5.80
2018-05-08T09:54:24.105Z,3.20
2018-05-08T09:55:24.301Z,3.90
2018-05-08T09:56:24.103Z,3.00
2018-05-08T09:57:24.116Z,1.80
2018-05-08T09:58:24.115Z,2.40
2018-05-08T09:59:24.312Z,2.20
2018-05-08T10:00:24.121Z,3.40
2018-05-08T10:01:24.114Z,3.20
2018-05-08T10:02:24.138Z,3.40
2018-05-08T10:03:24.332Z,2.60
2018-05-08T10:04:24.119Z,2.30
2018-05-08T10:05:24.206Z,6.90
2018-05-08T10:06:24.139Z,2.60
2018-05-08T10:07:24.125Z,2.20
2018-05-08T10:08:24.135Z,3.20
2018-05-08T10:09:24.136Z,3.30
2018-05-08T10:10:24.133Z,2.90
2018-05-08T10:11:24.341Z,2.40
2018-05-08T10:12:24.139Z,1.90
2018-05-08T10:13:24.347Z,2.40
2018-05-08T10:14:24.360Z,2.80
2018-05-08T10:15:24.362Z,2.90
2018-05-08T10:16:24.363Z,2.00
2018-05-08T10:17:24.171Z,2.10
2018-05-08T10:18:24.371Z,2.70
2018-05-08T10:19:24.192Z,2.80
2018-05-08T10:20:24.162Z,2.00
2018-05-08T10:21:24.175Z,2.10
2018-05-08T10:22:24.180Z,1.70
2018-05-08T10:23:24.166Z,2.10
2018-05-08T10:24:24.186Z,3.70
2018-05-08T10:25:24.176Z,1.70
2018-05-08T10:26:24.188Z,2.50
2018-05-08T10:27:24.181Z,1.80
2018-05-08T10:28:24.195Z,2.90
2018-05-08T10:29:24.200Z,3.80
2018-05-08T10:30:24.412Z,1.80
2018-05-08T10:31:24.199Z,1.90
2018-05-08T10:32:24.205Z,2.20
2018-05-08T10:33:24.197Z,3.70
2018-05-08T10:34:24.417Z,3.80
2018-05-08T10:35:24.213Z,2.20
2018-05-08T10:36:24.201Z,3.00
2018-05-08T10:37:24.222Z,3.60
2018-05-08T10:38:24.208Z,1.90
2018-05-08T10:39:24.239Z,2.70
2018-05-08T10:40:24.419Z,2.30
2018-05-08T10:41:24.229Z,1.90
2018-05-08T10:42:24.221Z,1.90
2018-05-08T10:43:24.235Z,2.50
2018-05-08T10:44:24.253Z,1.60
2018-05-08T10:45:24.229Z,2.00
2018-05-08T10:46:24.267Z,2.70
2018-05-08T10:47:24.236Z,2.30
2018-05-08T10:48:24.235Z,1.90
2018-05-08T10:49:24.455Z,3.70
2018-05-08T10:50:24.257Z,3.60
2018-05-08T10:51:24.259Z,1.70
2018-05-08T10:52:24.451Z,2.70
2018-05-08T10:53:24.251Z,1.50
2018-05-08T10:54:24.477Z,1.70
2018-05-08T10:55:24.271Z,1.60
2018-05-08T10:56:24.489Z,1.90
2018-05-08T10:57:24.466Z,1.70
2018-05-08T10:58:24.294Z,3.60
2018-05-08T10:59:24.473Z,2.00
2018-05-08T11:00:24.284Z,2.10
2018-05-08T11:01:24.300Z,2.10
2018-05-08T11:02:24.279Z,1.70
2018-05-08T11:03:24.280Z,1.80
2018-05-08T11:04:24.490Z,3.20
2018-05-08T11:05:24.286Z,2.90
2018-05-08T11:06:24.303Z,2.00
2018-05-08T11:07:24.308Z,2.40
2018-05-08T11:08:24.294Z,2.50
2018-05-08T11:09:24.302Z,3.70
2018-05-08T11:10:24.304Z,1.60
2018-05-08T11:11:24.318Z,1.70
2018-05-08T11:12:24.571Z,1.50
2018-05-08T11:13:24.321Z,2.70
2018-05-08T11:14:24.535Z,2.90
2018-05-08T11:15:24.532Z,2.00
2018-05-08T11:16:24.324Z,1.70
2018-05-08T11:17:24.323Z,1.70
2018-05-08T11:18:24.554Z,2.30
2018-05-08T11:19:24.332Z,3.00
2018-05-08T11:20:24.561Z,1.90
2018-05-08T11:21:24.541Z,1.90
2018-05-08T11:22:24.337Z,1.50
2018-05-08T11:23:24.547Z,2.80
2018-05-08T11:24:24.356Z,3.20
2018-05-08T11:25:24.358Z,2.30
2018-05-08T11:26:24.382Z,1.60
2018-05-08T11:27:24.571Z,1.70
2018-05-08T11:28:24.366Z,1.90
2018-05-08T11:29:24.360Z,1.90
2018-05-08T11:30:24.375Z,2.20
2018-05-08T11:31:24.380Z,1.80
2018-05-08T11:32:24.381Z,1.40
2018-05-08T11:33:24.371Z,1.90
2018-05-08T11:34:24.379Z,2.90
2018-05-08T11:35:24.584Z,2.60
2018-05-08T11:36:24.392Z,2.10
2018-05-08T11:37:24.600Z,2.10
2018-05-08T11:38:24.593Z,1.70
2018-05-08T11:39:24.489Z,2.70
2018-05-08T11:40:24.395Z,2.10
2018-05-08T11:41:24.413Z,3.00
2018-05-08T11:42:24.403Z,2.80
2018-05-08T11:43:24.413Z,3.70
2018-05-08T11:44:24.420Z,3.40
2018-05-08T11:45:24.421Z,2.90
2018-05-08T11:46:24.628Z,2.50
2018-05-08T11:47:24.431Z,3.30
2018-05-08T11:48:24.637Z,3.10
2018-05-08T11:49:24.435Z,1.70
2018-05-08T11:50:24.438Z,2.90
2018-05-08T11:51:24.428Z,1.90
2018-05-08T11:52:24.443Z,3.20
2018-05-08T11:53:24.437Z,1.90
2018-05-08T11:54:24.718Z,1.60
2018-05-08T11:55:24.648Z,2.30
2018-05-08T11:56:24.445Z,2.10
2018-05-08T11:57:24.665Z,2.50
2018-05-08T11:58:24.655Z,2.10
2018-05-08T11:59:24.660Z,2.00
2018-05-08T12:00:24.482Z,1.60
2018-05-08T12:01:24.462Z,2.80
2018-05-08T12:02:24.476Z,2.00
2018-05-08T12:03:24.679Z,1.60
2018-05-08T12:04:24.483Z,3.20
2018-05-08T12:05:24.473Z,2.00
2018-05-08T12:06:24.477Z,2.70
2018-05-08T12:07:24.488Z,3.30
2018-05-08T12:08:24.492Z,2.90
2018-05-08T12:09:24.702Z,2.40
2018-05-08T12:10:24.573Z,2.20
2018-05-08T12:11:24.504Z,4.00
2018-05-08T12:12:24.508Z,3.80
2018-05-08T12:13:24.507Z,3.30
2018-05-08T12:14:24.505Z,4.70
2018-05-08T12:15:24.519Z,2.40
2018-05-08T12:16:24.520Z,3.20
2018-05-08T12:17:24.510Z,2.60
2018-05-08T12:18:24.718Z,1.90
2018-05-08T12:19:24.722Z,2.20
2018-05-08T12:20:24.531Z,2.20
2018-05-08T12:21:24.523Z,4.00
2018-05-08T12:22:24.528Z,2.30
2018-05-08T12:23:24.552Z,2.00
2018-05-08T12:24:24.531Z,1.70
2018-05-08T12:25:24.539Z,2.60
2018-05-08T12:26:24.742Z,3.20
2018-05-08T12:27:24.542Z,2.50
2018-05-08T12:28:24.546Z,3.20
2018-05-08T12:29:24.577Z,3.10
2018-05-08T12:30:24.552Z,3.40
2018-05-08T12:31:24.552Z,2.20
2018-05-08T12:32:24.571Z,2.00
2018-05-08T12:33:24.572Z,2.00
2018-05-08T12:34:24.776Z,1.60
2018-05-08T12:35:24.649Z,2.40
2018-05-08T12:36:24.568Z,1.70
2018-05-08T12:37:24.593Z,2.90
2018-05-08T12:38:24.576Z,2.60
2018-05-08T12:39:24.589Z,2.70
2018-05-08T12:40:24.796Z,2.80
2018-05-08T12:41:24.798Z,1.60
2018-05-08T12:42:24.805Z,1.70
2018-05-08T12:43:24.806Z,2.10
2018-05-08T12:44:24.796Z,1.60
2018-05-08T12:45:24.800Z,3.60
2018-05-08T12:46:24.603Z,2.60
2018-05-08T12:47:24.602Z,2.50
2018-05-08T12:48:24.607Z,1.50
2018-05-08T12:49:24.622Z,2.20
2018-05-08T12:50:24.696Z,3.30
2018-05-08T12:51:24.824Z,2.30
2018-05-08T12:52:24.628Z,1.60
2018-05-08T12:53:24.645Z,1.70
2018-05-08T12:54:24.827Z,2.70
2018-05-08T12:55:24.638Z,3.40
2018-05-08T12:56:24.832Z,1.90
2018-05-08T12:57:24.634Z,4.10
2018-05-08T12:58:24.647Z,2.50
2018-05-08T12:59:24.650Z,3.50
2018-05-08T13:00:24.668Z,2.00
2018-05-08T13:01:24.645Z,1.60
2018-05-08T13:02:24.662Z,5.90
2018-05-08T13:03:24.665Z,2.20
2018-05-08T13:04:24.653Z,2.70
2018-05-08T13:05:24.703Z,1.60
2018-05-08T13:06:24.670Z,2.90
2018-05-08T13:07:24.666Z,4.30
2018-05-08T13:08:24.676Z,1.60
2018-05-08T13:09:24.876Z,2.60
2018-05-08T13:10:24.685Z,2.70
2018-05-08T13:11:24.693Z,1.60
2018-05-08T13:12:24.905Z,2.40
2018-05-08T13:13:24.682Z,1.60
2018-05-08T13:14:24.699Z,1.70
2018-05-08T13:15:24.699Z,2.10
2018-05-08T13:16:24.910Z,5.00
2018-05-08T13:17:24.695Z,1.60
2018-05-08T13:18:24.728Z,4.10